createdAt,value
2016-10-05T00:00:32.347Z,0.00
2016-10-05T00:01:32.712Z,0.00
2016-10-05T00:02:33.388Z,0.00
2016-10-05T00:03:33.731Z,0.00
2016-10-05T00:04:34.245Z,0.00
2016-10-05T00:05:34.755Z,0.00
2016-10-05T00:06:35.293Z,0.00
2016-10-05T00:07:35.805Z,0.00
2016-10-05T00:08:36.304Z,0.00
2016-10-05T00:09:36.830Z,0.30
2016-10-05T00:10:37.465Z,0.00
2016-10-05T00:11:37.831Z,0.00
2016-10-05T00:12:38.499Z,0.10
2016-10-05T00:13:38.885Z,0.00
2016-10-05T00:14:39.518Z,0.00
2016-10-05T00:15:39.913Z,0.00
2016-10-05T00:16:40.426Z,0.00
2016-10-05T00:17:40.937Z,0.00
2016-10-05T00:18:41.422Z,0.00
2016-10-05T00:19:41.932Z,0.00
2016-10-05T00:20:42.477Z,0.00
2016-10-05T00:21:42.961Z,0.00
2016-10-05T00:22:43.510Z,0.00
2016-10-05T00:23:44.148Z,0.10
2016-10-05T00:24:44.661Z,0.00
2016-10-05T00:25:45.032Z,0.00
2016-10-05T00:26:45.572Z,0.00
2016-10-05T00:27:46.082Z,0.00
2016-10-05T00:28:46.612Z,0.00
2016-10-05T00:29:47.085Z,0.00
2016-10-05T00:30:47.627Z,0.00
2016-10-05T00:31:48.116Z,0.00
2016-10-05T00:32:48.611Z,0.00
2016-10-05T00:33:49.126Z,0.00
2016-10-05T00:34:49.641Z,0.00
2016-10-05T00:35:50.177Z,0.00
2016-10-05T00:36:50.661Z,0.00
2016-10-05T00:37:51.170Z,0.00
2016-10-05T00:38:51.705Z,0.00
2016-10-05T00:39:52.216Z,0.00
2016-10-05T00:40:52.727Z,0.00
2016-10-05T00:41:53.208Z,0.00
2016-10-05T00:42:53.725Z,0.00
2016-10-05T00:43:54.249Z,0.00
2016-10-05T00:44:54.746Z,0.00
2016-10-05T00:45:55.262Z,0.00
2016-10-05T00:46:55.787Z,0.00
2016-10-05T00:47:56.285Z,0.00
2016-10-05T00:48:56.797Z,0.00
2016-10-05T00:49:57.336Z,0.00
2016-10-05T00:50:57.847Z,0.00
2016-10-05T00:51:58.349Z,0.00
2016-10-05T00:52:58.841Z,0.00
2016-10-05T00:53:59.347Z,0.00
2016-10-05T00:55:00.011Z,0.00
2016-10-05T00:56:00.378Z,0.00
2016-10-05T00:57:00.888Z,0.00
2016-10-05T00:58:01.392Z,0.00
2016-10-05T00:59:01.929Z,0.00
2016-10-05T01:00:02.569Z,0.00
2016-10-05T01:01:03.086Z,0.00
2016-10-05T01:02:03.456Z,0.00
2016-10-05T01:03:03.969Z,0.00
2016-10-05T01:04:04.506Z,0.00
2016-10-05T01:05:05.149Z,0.00
2016-10-05T01:06:05.540Z,0.00
2016-10-05T01:07:06.059Z,0.00
2016-10-05T01:08:06.536Z,0.00
2016-10-05T01:09:07.198Z,0.00
2016-10-05T01:10:07.565Z,0.00
2016-10-05T01:11:08.110Z,0.00
2016-10-05T01:12:08.588Z,0.00
2016-10-05T01:13:09.251Z,0.00
2016-10-05T01:14:09.640Z,0.00
2016-10-05T01:15:10.153Z,0.00
2016-10-05T01:16:10.637Z,0.00
2016-10-05T01:17:11.146Z,0.00
2016-10-05T01:18:11.660Z,0.00
2016-10-05T01:19:12.170Z,0.00
2016-10-05T01:20:12.678Z,0.00
2016-10-05T01:21:13.217Z,0.00
2016-10-05T01:22:13.705Z,0.00
2016-10-05T01:23:14.246Z,0.00
2016-10-05T01:24:14.747Z,0.00
2016-10-05T01:25:15.397Z,0.00
2016-10-05T01:26:15.785Z,0.00
2016-10-05T01:27:16.272Z,0.00
2016-10-05T01:28:16.815Z,0.00
2016-10-05T01:29:17.307Z,0.00
2016-10-05T01:30:17.816Z,0.00
2016-10-05T01:31:18.329Z,0.00
2016-10-05T01:32:18.845Z,0.00
2016-10-05T01:33:19.383Z,0.00
2016-10-05T01:34:19.893Z,0.00
2016-10-05T01:35:20.404Z,0.00
2016-10-05T01:36:20.922Z,0.00
2016-10-05T01:37:21.439Z,0.00
2016-10-05T01:38:21.936Z,0.00
2016-10-05T01:39:22.591Z,0.00
2016-10-05T01:40:22.991Z,0.00
2016-10-05T01:41:23.474Z,0.10
2016-10-05T01:42:24.015Z,0.00
2016-10-05T01:43:24.530Z,0.00
2016-10-05T01:44:25.013Z,0.00
2016-10-05T01:45:25.555Z,0.00
2016-10-05T01:46:26.033Z,0.10
2016-10-05T01:47:26.545Z,0.10
2016-10-05T01:48:27.082Z,0.00
2016-10-05T01:49:27.560Z,0.00
2016-10-05T01:50:28.072Z,0.00
2016-10-05T01:51:28.614Z,0.00
2016-10-05T01:52:29.092Z,0.00
2016-10-05T01:53:29.633Z,0.00
2016-10-05T01:54:30.144Z,0.00
2016-10-05T01:55:30.786Z,0.00
2016-10-05T01:56:31.138Z,0.00
2016-10-05T01:57:31.792Z,0.00
2016-10-05T01:58:32.161Z,0.00
2016-10-05T01:59:32.815Z,0.00
2016-10-05T02:00:33.222Z,0.00
2016-10-05T02:01:33.842Z,0.00
2016-10-05T02:02:34.207Z,0.00
2016-10-05T02:03:34.748Z,0.00
2016-10-05T02:04:35.261Z,0.00
2016-10-05T02:05:35.739Z,0.00
2016-10-05T02:06:36.281Z,0.00
2016-10-05T02:07:36.911Z,0.00
2016-10-05T02:08:37.277Z,0.00
2016-10-05T02:09:37.933Z,0.00
2016-10-05T02:10:38.332Z,0.00
2016-10-05T02:11:38.807Z,0.00
2016-10-05T02:12:39.356Z,0.00
2016-10-05T02:13:39.842Z,0.00
2016-10-05T02:14:40.371Z,0.00
2016-10-05T02:15:40.886Z,0.00
2016-10-05T02:16:41.377Z,0.00
2016-10-05T02:17:41.892Z,0.00
2016-10-05T02:18:42.433Z,0.00
2016-10-05T02:19:42.944Z,0.00
2016-10-05T02:20:43.580Z,0.00
2016-10-05T02:21:43.946Z,0.00
2016-10-05T02:22:44.454Z,0.00
2016-10-05T02:23:44.972Z,0.00
2016-10-05T02:24:45.479Z,0.00
2016-10-05T02:25:46.029Z,0.00
2016-10-05T02:26:46.536Z,0.00
2016-10-05T02:27:47.019Z,0.00
2016-10-05T02:28:47.560Z,0.00
2016-10-05T02:29:48.189Z,0.00
2016-10-05T02:30:48.577Z,0.00
2016-10-05T02:31:49.097Z,0.00
2016-10-05T02:32:49.597Z,0.00
2016-10-05T02:33:50.084Z,0.00
2016-10-05T02:34:50.594Z,0.00
2016-10-05T02:35:51.250Z,0.00
2016-10-05T02:36:51.615Z,0.00
2016-10-05T02:37:52.275Z,0.00
2016-10-05T02:38:52.667Z,0.00
2016-10-05T02:39:53.157Z,0.00
2016-10-05T02:40:53.691Z,0.00
2016-10-05T02:41:54.207Z,0.00
2016-10-05T02:42:54.705Z,0.00
2016-10-05T02:43:55.210Z,0.00
2016-10-05T02:44:55.724Z,0.00
2016-10-05T02:45:56.231Z,0.00
2016-10-05T02:46:56.769Z,0.00
2016-10-05T02:47:57.260Z,0.00
2016-10-05T02:48:57.805Z,0.00
2016-10-05T02:49:58.314Z,0.00
2016-10-05T02:50:58.801Z,0.00
2016-10-05T02:51:59.461Z,0.00
2016-10-05T02:52:59.826Z,0.00
2016-10-05T02:54:00.347Z,0.00
2016-10-05T02:55:00.884Z,0.00
2016-10-05T02:56:01.519Z,0.00
2016-10-05T02:57:01.885Z,0.00
2016-10-05T02:58:02.581Z,0.00
2016-10-05T02:59:02.948Z,0.00
2016-10-05T03:00:03.421Z,0.00
2016-10-05T03:01:03.930Z,0.00
2016-10-05T03:02:04.476Z,0.00
2016-10-05T03:03:04.962Z,0.00
2016-10-05T03:04:05.469Z,0.00
2016-10-05T03:05:05.973Z,0.00
2016-10-05T03:06:06.516Z,0.00
2016-10-05T03:07:07.020Z,0.00
2016-10-05T03:08:07.521Z,0.00
2016-10-05T03:09:08.048Z,0.00
2016-10-05T03:10:08.555Z,0.00
2016-10-05T03:11:09.038Z,0.00
2016-10-05T03:12:09.582Z,0.00
2016-10-05T03:13:10.065Z,0.00
2016-10-05T03:14:10.573Z,0.00
2016-10-05T03:15:11.087Z,0.00
2016-10-05T03:16:11.626Z,0.00
2016-10-05T03:17:12.134Z,0.00
2016-10-05T03:18:12.623Z,0.00
2016-10-05T03:19:13.125Z,0.00
2016-10-05T03:20:13.669Z,0.00
2016-10-05T03:21:14.148Z,0.00
2016-10-05T03:22:14.804Z,0.00
2016-10-05T03:23:15.195Z,0.00
2016-10-05T03:24:15.678Z,0.00
2016-10-05T03:25:16.187Z,0.00
2016-10-05T03:26:16.850Z,0.00
2016-10-05T03:27:17.238Z,0.00
2016-10-05T03:28:17.868Z,0.00
2016-10-05T03:29:18.256Z,0.00
2016-10-05T03:30:18.743Z,0.00
2016-10-05T03:31:19.258Z,0.00
2016-10-05T03:32:19.776Z,0.00
2016-10-05T03:33:20.318Z,0.00
2016-10-05T03:34:20.841Z,0.00
2016-10-05T03:35:21.360Z,0.00
2016-10-05T03:36:21.994Z,0.00
2016-10-05T03:37:22.357Z,0.00
2016-10-05T03:38:22.864Z,0.00
2016-10-05T03:39:23.404Z,0.00
2016-10-05T03:40:24.040Z,0.00
2016-10-05T03:41:24.431Z,0.00
2016-10-05T03:42:25.061Z,0.00
2016-10-05T03:43:25.449Z,0.00
2016-10-05T03:44:25.935Z,0.00
2016-10-05T03:45:26.443Z,0.00
2016-10-05T03:46:26.958Z,0.00
2016-10-05T03:47:27.460Z,0.00
2016-10-05T03:48:28.122Z,0.00
2016-10-05T03:49:28.487Z,0.00
2016-10-05T03:50:29.001Z,0.00
2016-10-05T03:51:29.536Z,0.00
2016-10-05T03:52:30.170Z,0.70
2016-10-05T03:53:30.564Z,0.70
2016-10-05T03:54:31.195Z,0.00
2016-10-05T03:55:31.589Z,0.00
2016-10-05T03:56:32.097Z,0.00
2016-10-05T03:57:32.614Z,0.00
2016-10-05T03:58:33.101Z,0.00
2016-10-05T03:59:33.625Z,0.00
2016-10-05T04:00:34.149Z,0.00
2016-10-05T04:01:34.633Z,0.00
2016-10-05T04:02:35.295Z,0.00
2016-10-05T04:03:35.661Z,0.00
2016-10-05T04:04:36.194Z,0.20
2016-10-05T04:05:36.708Z,0.20
2016-10-05T04:06:37.192Z,0.00
2016-10-05T04:07:37.701Z,0.00
2016-10-05T04:08:38.244Z,0.00
2016-10-05T04:09:38.735Z,0.00
2016-10-05T04:10:39.260Z,0.00
2016-10-05T04:11:39.767Z,0.10
2016-10-05T04:12:40.424Z,0.10
2016-10-05T04:13:40.790Z,0.00
2016-10-05T04:14:41.324Z,0.00
2016-10-05T04:15:41.836Z,0.00
2016-10-05T04:16:42.466Z,0.00
2016-10-05T04:17:42.826Z,0.00
2016-10-05T04:18:43.366Z,0.00
2016-10-05T04:19:43.870Z,0.00
2016-10-05T04:20:44.361Z,0.00
2016-10-05T04:21:44.868Z,0.00
2016-10-05T04:22:45.525Z,0.00
2016-10-05T04:23:45.886Z,0.00
2016-10-05T04:24:46.435Z,0.00
2016-10-05T04:25:46.908Z,0.00
2016-10-05T04:26:47.420Z,0.00
2016-10-05T04:27:47.932Z,0.00
2016-10-05T04:28:48.443Z,0.00
2016-10-05T04:29:48.976Z,0.00
2016-10-05T04:30:49.470Z,0.00
2016-10-05T04:31:50.001Z,0.00
2016-10-05T04:32:50.487Z,0.00
2016-10-05T04:33:51.031Z,0.00
2016-10-05T04:34:51.656Z,0.00
2016-10-05T04:35:52.171Z,0.00
2016-10-05T04:36:52.681Z,0.00
2016-10-05T04:37:53.046Z,0.00
2016-10-05T04:38:53.586Z,0.00
2016-10-05T04:39:54.093Z,0.00
2016-10-05T04:40:54.576Z,0.00
2016-10-05T04:41:55.235Z,0.00
2016-10-05T04:42:55.593Z,0.00
2016-10-05T04:43:56.115Z,0.00
2016-10-05T04:44:56.648Z,0.00
2016-10-05T04:45:57.130Z,0.00
2016-10-05T04:46:57.651Z,0.00
2016-10-05T04:47:58.194Z,0.00
2016-10-05T04:48:58.687Z,0.00
2016-10-05T04:49:59.202Z,0.00
2016-10-05T04:50:59.717Z,0.00
2016-10-05T04:52:00.257Z,0.00
2016-10-05T04:53:00.748Z,0.00
2016-10-05T04:54:01.261Z,0.00
2016-10-05T04:55:01.779Z,0.00
2016-10-05T04:56:02.284Z,0.00
2016-10-05T04:57:02.794Z,0.00
2016-10-05T04:58:03.302Z,0.00
2016-10-05T04:59:03.815Z,0.00
2016-10-05T05:00:04.327Z,0.00
2016-10-05T05:01:04.836Z,0.00
2016-10-05T05:02:05.352Z,0.00
2016-10-05T05:03:06.009Z,0.00
2016-10-05T05:04:06.397Z,0.00
2016-10-05T05:05:06.887Z,0.00
2016-10-05T05:06:07.429Z,0.00
2016-10-05T05:07:07.912Z,0.00
2016-10-05T05:08:08.455Z,0.00
2016-10-05T05:09:08.933Z,0.00
2016-10-05T05:10:09.440Z,0.00
2016-10-05T05:11:09.949Z,0.00
2016-10-05T05:12:10.465Z,0.00
2016-10-05T05:13:10.979Z,0.00
2016-10-05T05:14:11.516Z,0.00
2016-10-05T05:15:11.999Z,0.00
2016-10-05T05:16:12.532Z,0.00
2016-10-05T05:17:13.017Z,0.10
2016-10-05T05:18:13.556Z,0.00
2016-10-05T05:19:14.076Z,0.00
2016-10-05T05:20:14.554Z,0.00
2016-10-05T05:21:15.213Z,0.00
2016-10-05T05:22:15.583Z,0.00
2016-10-05T05:23:16.094Z,0.00
2016-10-05T05:24:16.606Z,0.00
2016-10-05T05:25:17.119Z,0.00
2016-10-05T05:26:17.668Z,0.00
2016-10-05T05:27:18.169Z,0.00
2016-10-05T05:28:18.666Z,0.00
2016-10-05T05:29:19.182Z,0.00
2016-10-05T05:30:19.724Z,0.00
2016-10-05T05:31:20.344Z,0.00
2016-10-05T05:32:20.725Z,0.00
2016-10-05T05:33:21.241Z,0.00
2016-10-05T05:34:21.726Z,0.00
2016-10-05T05:35:22.238Z,0.00
2016-10-05T05:36:22.748Z,0.00
2016-10-05T05:37:23.262Z,0.00
2016-10-05T05:38:23.772Z,0.00
2016-10-05T05:39:24.316Z,0.00
2016-10-05T05:40:24.836Z,0.00
2016-10-05T05:41:25.450Z,0.00
2016-10-05T05:42:25.803Z,0.00
2016-10-05T05:43:26.332Z,0.00
2016-10-05T05:44:26.954Z,0.00
2016-10-05T05:45:27.304Z,0.00
2016-10-05T05:46:27.948Z,0.00
2016-10-05T05:47:28.336Z,0.00
2016-10-05T05:48:28.950Z,0.00
2016-10-05T05:49:29.304Z,0.00
2016-10-05T05:50:29.803Z,0.00
2016-10-05T05:51:30.449Z,0.00
2016-10-05T05:52:30.947Z,0.00
2016-10-05T05:53:31.446Z,0.00
2016-10-05T05:54:31.798Z,0.00
2016-10-05T05:55:32.316Z,0.00
2016-10-05T05:56:32.794Z,0.00
2016-10-05T05:57:33.442Z,0.00
2016-10-05T05:58:33.833Z,0.00
2016-10-05T05:59:34.438Z,0.00
2016-10-05T06:00:34.794Z,0.00
2016-10-05T06:01:35.462Z,0.00
2016-10-05T06:02:35.812Z,0.00
2016-10-05T06:03:36.300Z,0.00
2016-10-05T06:04:36.968Z,0.00
2016-10-05T06:05:37.341Z,0.00
2016-10-05T06:06:37.956Z,0.00
2016-10-05T06:07:38.462Z,0.00
2016-10-05T06:08:39.113Z,0.00
2016-10-05T06:09:39.474Z,0.00
2016-10-05T06:10:39.962Z,0.00
2016-10-05T06:11:40.462Z,0.00
2016-10-05T06:12:40.838Z,0.00
2016-10-05T06:13:41.315Z,0.00
2016-10-05T06:14:41.818Z,0.00
2016-10-05T06:15:42.318Z,0.00
2016-10-05T06:16:42.856Z,0.00
2016-10-05T06:17:43.468Z,0.00
2016-10-05T06:18:43.819Z,0.00
2016-10-05T06:19:44.318Z,0.00
2016-10-05T06:20:44.865Z,0.00
2016-10-05T06:21:45.468Z,0.00
2016-10-05T06:22:45.978Z,0.00
2016-10-05T06:23:46.321Z,0.00
2016-10-05T06:24:46.837Z,0.00
2016-10-05T06:25:47.348Z,0.10
2016-10-05T06:26:47.853Z,0.10
2016-10-05T06:27:48.474Z,0.00
2016-10-05T06:28:48.848Z,0.00
2016-10-05T06:29:49.347Z,0.00
2016-10-05T06:30:49.863Z,0.00
2016-10-05T06:31:50.476Z,0.00
2016-10-05T06:32:50.846Z,0.00
2016-10-05T06:33:51.364Z,0.00
2016-10-05T06:34:51.827Z,0.00
2016-10-05T06:35:52.349Z,0.00
2016-10-05T06:36:52.886Z,0.00
2016-10-05T06:37:53.480Z,0.00
2016-10-05T06:38:53.985Z,0.00
2016-10-05T06:39:54.336Z,0.00
2016-10-05T06:40:54.855Z,0.00
2016-10-05T06:41:55.507Z,0.00
2016-10-05T06:42:55.995Z,0.00
2016-10-05T06:43:56.346Z,0.00
2016-10-05T06:44:56.851Z,0.00
2016-10-05T06:45:57.365Z,0.00
2016-10-05T06:46:57.880Z,0.00
2016-10-05T06:47:58.381Z,0.00
2016-10-05T06:48:58.855Z,0.00
2016-10-05T06:49:59.388Z,0.00
2016-10-05T06:51:00.005Z,0.00
2016-10-05T06:52:00.498Z,0.00
2016-10-05T06:53:00.865Z,0.00
2016-10-05T06:54:01.380Z,0.00
2016-10-05T06:55:01.875Z,0.00
2016-10-05T06:56:02.363Z,0.00
2016-10-05T06:57:03.003Z,0.00
2016-10-05T06:58:03.522Z,0.00
2016-10-05T06:59:03.885Z,0.00
2016-10-05T07:00:04.380Z,0.00
2016-10-05T07:01:04.872Z,0.00
2016-10-05T07:02:05.380Z,0.00
2016-10-05T07:03:06.014Z,0.00
2016-10-05T07:04:06.510Z,0.00
2016-10-05T07:05:07.011Z,0.00
2016-10-05T07:06:07.512Z,0.00
2016-10-05T07:07:07.891Z,0.00
2016-10-05T07:08:08.511Z,0.00
2016-10-05T07:09:08.861Z,0.00
2016-10-05T07:10:09.361Z,0.00
2016-10-05T07:11:10.022Z,0.00
2016-10-05T07:12:10.361Z,0.00
2016-10-05T07:13:10.865Z,0.00
2016-10-05T07:14:11.390Z,0.00
2016-10-05T07:15:12.012Z,0.00
2016-10-05T07:16:12.380Z,0.00
2016-10-05T07:17:12.864Z,0.00
2016-10-05T07:18:13.363Z,0.00
2016-10-05T07:19:13.913Z,0.00
2016-10-05T07:20:14.522Z,0.00
2016-10-05T07:21:14.896Z,0.00
2016-10-05T07:22:15.373Z,0.00
2016-10-05T07:23:15.877Z,0.00
2016-10-05T07:24:16.529Z,0.00
2016-10-05T07:25:17.031Z,0.00
2016-10-05T07:26:17.385Z,0.00
2016-10-05T07:27:17.887Z,0.00
2016-10-05T07:28:18.387Z,0.00
2016-10-05T07:29:18.886Z,0.00
2016-10-05T07:30:19.388Z,0.00
2016-10-05T07:31:19.890Z,0.00
2016-10-05T07:32:20.396Z,0.00
2016-10-05T07:33:21.040Z,0.00
2016-10-05T07:34:21.433Z,0.00
2016-10-05T07:35:21.888Z,0.00
2016-10-05T07:36:22.561Z,0.00
2016-10-05T07:37:23.042Z,0.00
2016-10-05T07:38:23.442Z,0.00
2016-10-05T07:39:23.920Z,0.00
2016-10-05T07:40:24.394Z,0.00
2016-10-05T07:41:24.890Z,0.00
2016-10-05T07:42:25.398Z,0.00
2016-10-05T07:43:25.906Z,0.00
2016-10-05T07:44:26.403Z,0.00
2016-10-05T07:45:27.049Z,0.00
2016-10-05T07:46:27.399Z,0.00
2016-10-05T07:47:27.898Z,0.00
2016-10-05T07:48:28.538Z,0.00
2016-10-05T07:49:29.043Z,0.00
2016-10-05T07:50:29.412Z,0.00
2016-10-05T07:51:29.892Z,0.00
2016-10-05T07:52:30.557Z,0.00
2016-10-05T07:53:30.911Z,0.00
2016-10-05T07:54:31.540Z,0.00
2016-10-05T07:55:32.034Z,0.00
2016-10-05T07:56:32.534Z,0.00
2016-10-05T07:57:32.891Z,0.00
2016-10-05T07:58:33.544Z,0.00
2016-10-05T07:59:33.922Z,0.00
2016-10-05T08:00:34.543Z,0.00
2016-10-05T08:01:34.904Z,0.00
2016-10-05T08:02:35.543Z,0.00
2016-10-05T08:03:35.914Z,0.00
2016-10-05T08:04:36.418Z,0.00
2016-10-05T08:05:37.059Z,0.00
2016-10-05T08:06:37.543Z,0.00
2016-10-05T08:07:37.900Z,0.00
2016-10-05T08:08:38.396Z,0.00
2016-10-05T08:09:38.896Z,0.00
2016-10-05T08:10:39.408Z,0.00
2016-10-05T08:11:39.894Z,0.00
2016-10-05T08:12:40.418Z,0.00
2016-10-05T08:13:41.044Z,0.00
2016-10-05T08:14:41.542Z,0.00
2016-10-05T08:15:41.896Z,0.00
2016-10-05T08:16:42.421Z,0.00
2016-10-05T08:17:42.925Z,0.00
2016-10-05T08:18:43.423Z,0.00
2016-10-05T08:19:43.912Z,0.00
2016-10-05T08:20:44.400Z,0.00
2016-10-05T08:21:44.910Z,0.00
2016-10-05T08:22:45.415Z,0.00
2016-10-05T08:23:46.061Z,0.00
2016-10-05T08:24:46.550Z,0.00
2016-10-05T08:25:47.046Z,0.00
2016-10-05T08:26:47.420Z,0.00
2016-10-05T08:27:47.898Z,0.00
2016-10-05T08:28:48.452Z,0.00
2016-10-05T08:29:48.898Z,0.00
2016-10-05T08:30:49.446Z,0.00
2016-10-05T08:31:49.906Z,0.00
2016-10-05T08:32:50.428Z,0.50
2016-10-05T08:33:50.907Z,1.70
2016-10-05T08:34:51.440Z,1.70
2016-10-05T08:35:51.916Z,1.90
2016-10-05T08:36:52.568Z,0.50
2016-10-05T08:37:53.072Z,0.60
2016-10-05T08:38:53.429Z,0.00
2016-10-05T08:39:54.069Z,0.10
2016-10-05T08:40:54.422Z,0.20
2016-10-05T08:41:54.947Z,0.50
2016-10-05T08:42:55.425Z,3.00
2016-10-05T08:43:55.969Z,2.10
2016-10-05T08:44:56.586Z,2.40
2016-10-05T08:45:56.934Z,0.90
2016-10-05T08:46:57.442Z,0.20
2016-10-05T08:47:57.976Z,0.00
2016-10-05T08:48:58.434Z,0.00
2016-10-05T08:49:58.955Z,0.00
2016-10-05T08:50:59.468Z,0.00
2016-10-05T08:52:00.083Z,1.10
2016-10-05T08:53:00.444Z,2.40
2016-10-05T08:54:00.931Z,2.90
2016-10-05T08:55:01.575Z,1.30
2016-10-05T08:56:01.954Z,0.90
2016-10-05T08:57:02.575Z,0.70
2016-10-05T08:58:02.937Z,1.80
2016-10-05T08:59:03.424Z,2.00
2016-10-05T09:00:03.931Z,1.10
2016-10-05T09:01:04.425Z,0.60
2016-10-05T09:02:05.074Z,2.40
2016-10-05T09:03:05.428Z,2.00
2016-10-05T09:04:06.092Z,1.30
2016-10-05T09:05:06.421Z,0.40
2016-10-05T09:06:09.940Z,1.60
2016-10-05T09:07:07.425Z,1.00
2016-10-05T09:08:07.934Z,0.40
2016-10-05T09:09:08.436Z,2.30
2016-10-05T09:10:08.946Z,1.70
2016-10-05T09:11:09.574Z,0.90
2016-10-05T09:12:09.949Z,0.30
2016-10-05T09:13:10.435Z,0.00
2016-10-05T09:14:11.084Z,1.10
2016-10-05T09:15:11.441Z,0.20
2016-10-05T09:16:12.087Z,0.00
2016-10-05T09:17:12.469Z,0.00
2016-10-05T09:18:12.956Z,0.00
2016-10-05T09:19:13.439Z,0.10
2016-10-05T09:20:13.954Z,1.70
2016-10-05T09:21:14.461Z,1.40
2016-10-05T09:22:14.971Z,0.00
2016-10-05T09:23:15.445Z,0.00
2016-10-05T09:24:15.937Z,0.00
2016-10-05T09:25:16.453Z,0.50
2016-10-05T09:26:16.944Z,0.00
2016-10-05T09:27:17.432Z,0.20
2016-10-05T09:28:17.937Z,1.00
2016-10-05T09:29:18.434Z,1.30
2016-10-05T09:30:19.080Z,0.50
2016-10-05T09:31:19.434Z,0.30
2016-10-05T09:32:19.933Z,1.40
2016-10-05T09:33:20.478Z,1.40
2016-10-05T09:34:21.084Z,0.80
2016-10-05T09:35:21.580Z,1.50
2016-10-05T09:36:21.977Z,0.20
2016-10-05T09:37:22.599Z,0.20
2016-10-05T09:38:23.085Z,0.30
2016-10-05T09:39:23.593Z,1.20
2016-10-05T09:40:24.079Z,0.80
2016-10-05T09:41:24.581Z,1.00
2016-10-05T09:42:24.970Z,0.70
2016-10-05T09:43:25.433Z,3.70
2016-10-05T09:44:25.948Z,3.20
2016-10-05T09:45:26.436Z,1.30
2016-10-05T09:46:26.947Z,1.40
2016-10-05T09:47:27.445Z,0.60
2016-10-05T09:48:27.985Z,1.40
2016-10-05T09:49:28.461Z,1.10
2016-10-05T09:50:28.955Z,1.60
2016-10-05T09:51:29.457Z,2.30
2016-10-05T09:52:29.944Z,1.90
2016-10-05T09:53:30.472Z,2.60
2016-10-05T09:54:30.987Z,1.90
2016-10-05T09:55:31.603Z,2.60
2016-10-05T09:56:32.105Z,3.00
2016-10-05T09:57:32.462Z,3.80
2016-10-05T09:58:33.114Z,3.90
2016-10-05T09:59:33.471Z,4.90
2016-10-05T10:00:33.985Z,4.50
2016-10-05T10:01:34.472Z,3.40
2016-10-05T10:02:35.254Z,3.90
2016-10-05T10:03:35.463Z,4.70
2016-10-05T10:04:35.972Z,4.00
2016-10-05T10:05:36.455Z,3.80
2016-10-05T10:06:37.099Z,3.10
2016-10-05T10:07:37.499Z,4.50
2016-10-05T10:08:37.973Z,2.70
2016-10-05T10:09:38.481Z,2.60
2016-10-05T10:10:39.104Z,4.90
2016-10-05T10:11:39.596Z,3.40
2016-10-05T10:12:39.986Z,1.50
2016-10-05T10:13:40.603Z,1.90
2016-10-05T10:14:40.949Z,2.10
2016-10-05T10:15:41.453Z,3.90
2016-10-05T10:16:41.952Z,1.40
2016-10-05T10:17:42.595Z,2.50
2016-10-05T10:18:42.947Z,1.10
2016-10-05T10:19:43.488Z,1.20
2016-10-05T10:20:43.973Z,1.80
2016-10-05T10:21:44.602Z,2.40
2016-10-05T10:22:44.957Z,0.50
2016-10-05T10:23:45.452Z,1.20
2016-10-05T10:24:45.948Z,0.30
2016-10-05T10:25:46.497Z,1.30
2016-10-05T10:26:47.102Z,1.30
2016-10-05T10:27:47.600Z,1.30
2016-10-05T10:28:47.958Z,1.30
2016-10-05T10:29:48.471Z,0.90
2016-10-05T10:30:48.976Z,0.90
2016-10-05T10:31:49.466Z,0.40
2016-10-05T10:32:49.966Z,0.90
2016-10-05T10:33:50.607Z,0.60
2016-10-05T10:34:50.979Z,0.30
2016-10-05T10:35:51.494Z,1.30
2016-10-05T10:36:52.000Z,0.50
2016-10-05T10:37:52.610Z,0.00
2016-10-05T10:38:52.978Z,0.00
2016-10-05T10:39:53.472Z,0.70
2016-10-05T10:40:53.966Z,0.90
2016-10-05T10:41:54.611Z,0.20
2016-10-05T10:42:55.116Z,0.50
2016-10-05T10:43:55.466Z,2.00
2016-10-05T10:44:56.117Z,1.20
2016-10-05T10:45:56.490Z,1.60
2016-10-05T10:46:56.984Z,1.50
2016-10-05T10:47:57.616Z,1.50
2016-10-05T10:48:57.969Z,1.20
2016-10-05T10:49:58.476Z,1.50
2016-10-05T10:50:59.121Z,1.50
2016-10-05T10:51:59.513Z,1.50
2016-10-05T10:52:59.973Z,1.20
2016-10-05T10:54:00.487Z,0.00
2016-10-05T10:55:01.113Z,2.00
2016-10-05T10:56:01.612Z,1.80
2016-10-05T10:57:01.979Z,0.80
2016-10-05T10:58:02.463Z,1.20
2016-10-05T10:59:02.965Z,1.10
2016-10-05T11:00:03.612Z,1.00
2016-10-05T11:01:03.968Z,1.10
2016-10-05T11:02:04.497Z,0.50
2016-10-05T11:03:05.128Z,0.70
2016-10-05T11:04:05.472Z,1.90
2016-10-05T11:05:05.976Z,1.60
2016-10-05T11:06:06.486Z,0.50
2016-10-05T11:07:06.985Z,0.50
2016-10-05T11:08:07.508Z,0.90
2016-10-05T11:09:08.022Z,2.30
2016-10-05T11:10:08.512Z,2.00
2016-10-05T11:11:08.993Z,2.20
2016-10-05T11:12:09.634Z,1.00
2016-10-05T11:13:10.023Z,1.70
2016-10-05T11:14:10.642Z,1.20
2016-10-05T11:15:10.985Z,1.20
2016-10-05T11:16:11.509Z,0.90
2016-10-05T11:17:12.142Z,1.80
2016-10-05T11:18:12.649Z,1.80
2016-10-05T11:19:13.007Z,1.50
2016-10-05T11:20:13.493Z,1.50
2016-10-05T11:21:14.036Z,0.40
2016-10-05T11:22:14.490Z,0.60
2016-10-05T11:23:14.990Z,0.90
2016-10-05T11:24:15.493Z,0.60
2016-10-05T11:25:16.154Z,0.40
2016-10-05T11:26:16.623Z,0.50
2016-10-05T11:27:17.006Z,0.70
2016-10-05T11:28:17.475Z,0.40
2016-10-05T11:29:18.125Z,0.60
2016-10-05T11:30:18.622Z,1.70
2016-10-05T11:31:19.121Z,1.50
2016-10-05T11:32:19.509Z,1.50
2016-10-05T11:33:20.129Z,0.90
2016-10-05T11:34:20.633Z,1.00
2016-10-05T11:35:20.997Z,1.10
2016-10-05T11:36:21.511Z,1.00
2016-10-05T11:37:21.967Z,0.60
2016-10-05T11:38:22.620Z,0.60
2016-10-05T11:39:22.996Z,0.10
2016-10-05T11:40:23.493Z,0.70
2016-10-05T11:41:23.968Z,0.70
2016-10-05T11:42:24.478Z,0.90
2016-10-05T11:43:24.982Z,0.80
2016-10-05T11:44:25.500Z,1.60
2016-10-05T11:45:25.988Z,1.20
2016-10-05T11:46:26.488Z,0.80
2016-10-05T11:47:26.995Z,0.90
2016-10-05T11:48:27.644Z,0.90
2016-10-05T11:49:28.006Z,1.80
2016-10-05T11:50:28.514Z,1.70
2016-10-05T11:51:29.002Z,1.00
2016-10-05T11:52:29.503Z,1.80
2016-10-05T11:53:29.992Z,1.80
2016-10-05T11:54:30.533Z,1.70
2016-10-05T11:55:30.993Z,1.70
2016-10-05T11:56:31.519Z,2.60
2016-10-05T11:57:31.996Z,1.60
2016-10-05T11:58:32.492Z,0.90
2016-10-05T11:59:33.142Z,1.50
2016-10-05T12:00:33.657Z,1.00
2016-10-05T12:01:34.004Z,2.00
2016-10-05T12:02:34.544Z,1.80
2016-10-05T12:03:35.022Z,2.50
2016-10-05T12:04:35.532Z,2.10
2016-10-05T12:05:35.996Z,1.20
2016-10-05T12:06:36.641Z,2.00
2016-10-05T12:07:37.007Z,1.50
2016-10-05T12:08:37.648Z,1.70
2016-10-05T12:09:38.059Z,0.10
2016-10-05T12:10:38.538Z,0.00
2016-10-05T12:11:39.145Z,0.00
2016-10-05T12:12:39.644Z,0.00
2016-10-05T12:13:39.995Z,0.00
2016-10-05T12:14:40.642Z,0.00
2016-10-05T12:15:41.019Z,0.00
2016-10-05T12:16:41.642Z,0.00
2016-10-05T12:17:41.992Z,0.00
2016-10-05T12:18:42.512Z,0.60
2016-10-05T12:19:43.008Z,0.80
2016-10-05T12:20:43.539Z,0.50
2016-10-05T12:21:43.999Z,0.40
2016-10-05T12:22:44.648Z,1.50
2016-10-05T12:23:45.151Z,1.00
2016-10-05T12:24:45.508Z,1.40
2016-10-05T12:25:46.011Z,1.60
2016-10-05T12:26:46.508Z,1.50
2016-10-05T12:27:47.160Z,0.90
2016-10-05T12:28:47.518Z,0.30
2016-10-05T12:29:48.037Z,0.70
2016-10-05T12:30:48.661Z,0.80
2016-10-05T12:31:49.158Z,0.80
2016-10-05T12:32:49.677Z,0.40
2016-10-05T12:33:50.038Z,1.20
2016-10-05T12:34:50.536Z,1.40
2016-10-05T12:35:51.169Z,1.20
2016-10-05T12:36:51.512Z,1.50
2016-10-05T12:37:52.163Z,1.70
2016-10-05T12:38:52.541Z,1.20
2016-10-05T12:39:53.013Z,0.70
2016-10-05T12:40:53.511Z,0.80
2016-10-05T12:41:54.162Z,1.10
2016-10-05T12:42:54.677Z,0.80
2016-10-05T12:43:55.157Z,1.10
2016-10-05T12:44:55.668Z,1.00
2016-10-05T12:45:56.009Z,1.50
2016-10-05T12:46:56.658Z,1.50
2016-10-05T12:47:57.157Z,1.60
2016-10-05T12:48:57.515Z,1.60
2016-10-05T12:49:58.161Z,1.00
2016-10-05T12:50:58.512Z,1.60
2016-10-05T12:51:59.016Z,2.50
2016-10-05T12:52:59.547Z,1.00
2016-10-05T12:54:00.167Z,1.30
2016-10-05T12:55:00.655Z,1.90
2016-10-05T12:56:01.011Z,2.00
2016-10-05T12:57:01.655Z,2.10
2016-10-05T12:58:02.012Z,2.70
2016-10-05T12:59:02.655Z,2.50
2016-10-05T13:00:03.010Z,2.80
2016-10-05T13:01:03.509Z,2.50
2016-10-05T13:02:04.040Z,1.90
2016-10-05T13:03:04.660Z,1.50
2016-10-05T13:04:05.018Z,1.40
2016-10-05T13:05:05.526Z,1.90
2016-10-05T13:06:06.064Z,2.10
2016-10-05T13:07:06.516Z,2.70
2016-10-05T13:08:07.024Z,2.30
2016-10-05T13:09:07.664Z,2.40
2016-10-05T13:10:08.029Z,3.00
2016-10-05T13:11:08.685Z,2.80
2016-10-05T13:12:09.048Z,1.90
2016-10-05T13:13:09.668Z,1.80
2016-10-05T13:14:10.166Z,1.80
2016-10-05T13:15:10.517Z,1.80
2016-10-05T13:16:11.022Z,2.20
2016-10-05T13:17:11.519Z,2.30
2016-10-05T13:18:12.018Z,3.40
2016-10-05T13:19:12.663Z,2.40
2016-10-05T13:20:13.173Z,1.80
2016-10-05T13:21:13.540Z,1.30
2016-10-05T13:22:14.027Z,1.50
2016-10-05T13:23:14.529Z,1.40
2016-10-05T13:24:15.036Z,2.10
2016-10-05T13:25:15.665Z,2.00